sensor_id;sensor_type;location;lat;lon;timestamp;P1;durP1;ratioP1;P2;durP2;ratioP2
53718;SDS011;39616;48.872;9.390;2023-02-28T00:00:52;4.90;;;1.80;;
53718;SDS011;39616;48.872;9.390;2023-02-28T00:03:23;4.68;;;1.98;;
53718;SDS011;39616;48.872;9.390;2023-02-28T00:05:53;4.15;;;1.20;;
53718;SDS011;39616;48.872;9.390;2023-02-28T00:08:23;2.58;;;1.80;;
53718;SDS011;39616;48.872;9.390;2023-02-28T00:10:54;2.90;;;1.58;;
53718;SDS011;39616;48.872;9.390;2023-02-28T00:13:24;2.75;;;1.63;;
53718;SDS011;39616;48.872;9.390;2023-02-28T00:16:07;2.38;;;1.70;;
53718;SDS011;39616;48.872;9.390;2023-02-28T00:18:41;3.03;;;1.50;;
53718;SDS011;39616;48.872;9.390;2023-02-28T00:21:12;1.85;;;1.67;;
53718;SDS011;39616;48.872;9.390;2023-02-28T00:23:42;4.75;;;1.80;;
53718;SDS011;39616;48.872;9.390;2023-02-28T00:26:12;4.00;;;1.92;;
53718;SDS011;39616;48.872;9.390;2023-02-28T00:28:43;2.40;;;1.60;;
53718;SDS011;39616;48.872;9.390;2023-02-28T00:31:13;2.95;;;1.67;;
53718;SDS011;39616;48.872;9.390;2023-02-28T00:33:43;5.53;;;2.60;;
53718;SDS011;39616;48.872;9.390;2023-02-28T00:36:14;2.33;;;1.65;;
53718;SDS011;39616;48.872;9.390;2023-02-28T00:38:44;3.33;;;1.90;;
53718;SDS011;39616;48.872;9.390;2023-02-28T00:41:14;2.75;;;1.75;;
53718;SDS011;39616;48.872;9.390;2023-02-28T00:43:45;3.33;;;1.70;;
53718;SDS011;39616;48.872;9.390;2023-02-28T00:46:15;3.28;;;2.30;;
53718;SDS011;39616;48.872;9.390;2023-02-28T00:48:46;4.75;;;2.55;;
53718;SDS011;39616;48.872;9.390;2023-02-28T00:51:16;3.60;;;1.92;;
53718;SDS011;39616;48.872;9.390;2023-02-28T00:53:46;3.05;;;1.90;;
53718;SDS011;39616;48.872;9.390;2023-02-28T00:56:17;3.13;;;1.98;;
53718;SDS011;39616;48.872;9.390;2023-02-28T00:58:47;4.53;;;2.45;;
53718;SDS011;39616;48.872;9.390;2023-02-28T01:01:17;3.38;;;1.92;;
53718;SDS011;39616;48.872;9.390;2023-02-28T01:03:48;5.95;;;3.05;;
53718;SDS011;39616;48.872;9.390;2023-02-28T01:06:18;7.10;;;3.40;;
53718;SDS011;39616;48.872;9.390;2023-02-28T01:08:48;9.60;;;4.22;;
53718;SDS011;39616;48.872;9.390;2023-02-28T01:11:19;7.35;;;3.30;;
53718;SDS011;39616;48.872;9.390;2023-02-28T01:13:49;7.13;;;2.67;;
53718;SDS011;39616;48.872;9.390;2023-02-28T01:16:20;10.05;;;4.13;;
53718;SDS011;39616;48.872;9.390;2023-02-28T01:18:50;10.38;;;4.85;;
53718;SDS011;39616;48.872;9.390;2023-02-28T01:21:21;13.02;;;4.43;;
53718;SDS011;39616;48.872;9.390;2023-02-28T01:23:52;2.70;;;2.35;;
53718;SDS011;39616;48.872;9.390;2023-02-28T01:26:22;12.90;;;4.70;;
53718;SDS011;39616;48.872;9.390;2023-02-28T01:28:53;11.18;;;4.88;;
53718;SDS011;39616;48.872;9.390;2023-02-28T01:31:23;3.83;;;2.30;;
53718;SDS011;39616;48.872;9.390;2023-02-28T01:33:54;5.68;;;2.47;;
53718;SDS011;39616;48.872;9.390;2023-02-28T01:36:25;3.72;;;2.85;;
53718;SDS011;39616;48.872;9.390;2023-02-28T01:38:55;3.95;;;2.65;;
53718;SDS011;39616;48.872;9.390;2023-02-28T01:41:27;3.72;;;2.35;;
53718;SDS011;39616;48.872;9.390;2023-02-28T01:46:35;3.88;;;2.08;;
53718;SDS011;39616;48.872;9.390;2023-02-28T01:49:07;3.78;;;2.65;;
53718;SDS011;39616;48.872;9.390;2023-02-28T01:51:43;3.92;;;2.25;;
53718;SDS011;39616;48.872;9.390;2023-02-28T01:54:21;7.20;;;2.55;;
53718;SDS011;39616;48.872;9.390;2023-02-28T01:56:55;5.03;;;2.15;;
53718;SDS011;39616;48.872;9.390;2023-02-28T01:59:30;6.28;;;2.88;;
53718;SDS011;39616;48.872;9.390;2023-02-28T02:02:05;4.72;;;2.40;;
53718;SDS011;39616;48.872;9.390;2023-02-28T02:04:41;5.43;;;2.63;;
53718;SDS011;39616;48.872;9.390;2023-02-28T02:07:24;3.63;;;2.08;;
53718;SDS011;39616;48.872;9.390;2023-02-28T02:09:59;5.32;;;2.55;;
53718;SDS011;39616;48.872;9.390;2023-02-28T02:16:23;7.07;;;3.72;;
53718;SDS011;39616;48.872;9.390;2023-02-28T02:27:05;3.67;;;2.67;;
53718;SDS011;39616;48.872;9.390;2023-02-28T02:30:02;5.78;;;2.58;;
53718;SDS011;39616;48.872;9.390;2023-02-28T02:35:31;7.85;;;2.75;;
53718;SDS011;39616;48.872;9.390;2023-02-28T02:38:12;4.72;;;3.17;;
53718;SDS011;39616;48.872;9.390;2023-02-28T02:43:58;4.45;;;2.83;;
53718;SDS011;39616;48.872;9.390;2023-02-28T02:46:40;5.97;;;3.20;;
53718;SDS011;39616;48.872;9.390;2023-02-28T02:49:19;5.38;;;3.10;;
53718;SDS011;39616;48.872;9.390;2023-02-28T02:51:54;5.00;;;2.92;;
53718;SDS011;39616;48.872;9.390;2023-02-28T02:54:27;4.40;;;2.78;;
53718;SDS011;39616;48.872;9.390;2023-02-28T02:57:03;6.72;;;3.08;;
53718;SDS011;39616;48.872;9.390;2023-02-28T02:59:40;7.40;;;3.20;;
53718;SDS011;39616;48.872;9.390;2023-02-28T03:02:12;6.93;;;3.28;;
53718;SDS011;39616;48.872;9.390;2023-02-28T03:04:46;4.85;;;2.72;;
53718;SDS011;39616;48.872;9.390;2023-02-28T03:07:21;5.22;;;3.30;;
53718;SDS011;39616;48.872;9.390;2023-02-28T03:09:52;4.20;;;3.00;;
53718;SDS011;39616;48.872;9.390;2023-02-28T03:12:27;5.13;;;2.67;;
53718;SDS011;39616;48.872;9.390;2023-02-28T03:15:22;7.77;;;4.10;;
53718;SDS011;39616;48.872;9.390;2023-02-28T03:18:10;6.68;;;2.90;;
53718;SDS011;39616;48.872;9.390;2023-02-28T03:23:42;6.78;;;3.80;;
53718;SDS011;39616;48.872;9.390;2023-02-28T03:26:28;3.17;;;2.75;;
53718;SDS011;39616;48.872;9.390;2023-02-28T03:31:53;5.97;;;4.18;;
53718;SDS011;39616;48.872;9.390;2023-02-28T03:34:29;11.90;;;3.27;;
53718;SDS011;39616;48.872;9.390;2023-02-28T03:37:05;7.55;;;3.80;;
53718;SDS011;39616;48.872;9.390;2023-02-28T03:39:41;5.35;;;3.05;;
53718;SDS011;39616;48.872;9.390;2023-02-28T03:42:17;5.03;;;4.00;;
53718;SDS011;39616;48.872;9.390;2023-02-28T03:44:54;6.28;;;4.22;;
53718;SDS011;39616;48.872;9.390;2023-02-28T03:47:33;5.38;;;3.47;;
53718;SDS011;39616;48.872;9.390;2023-02-28T03:50:19;8.65;;;3.58;;
53718;SDS011;39616;48.872;9.390;2023-02-28T03:52:55;3.53;;;2.58;;
53718;SDS011;39616;48.872;9.390;2023-02-28T03:55:36;8.50;;;3.80;;
53718;SDS011;39616;48.872;9.390;2023-02-28T03:58:13;4.90;;;3.90;;
53718;SDS011;39616;48.872;9.390;2023-02-28T04:01:12;5.18;;;3.60;;
53718;SDS011;39616;48.872;9.390;2023-02-28T04:03:46;6.38;;;4.03;;
53718;SDS011;39616;48.872;9.390;2023-02-28T04:06:18;4.60;;;3.33;;
53718;SDS011;39616;48.872;9.390;2023-02-28T04:08:50;8.80;;;4.97;;
53718;SDS011;39616;48.872;9.390;2023-02-28T04:11:22;10.48;;;3.90;;
53718;SDS011;39616;48.872;9.390;2023-02-28T04:13:57;6.85;;;3.67;;
53718;SDS011;39616;48.872;9.390;2023-02-28T04:16:28;7.25;;;3.67;;
53718;SDS011;39616;48.872;9.390;2023-02-28T04:18:59;6.00;;;3.35;;
53718;SDS011;39616;48.872;9.390;2023-02-28T04:21:36;6.70;;;3.67;;
53718;SDS011;39616;48.872;9.390;2023-02-28T04:24:09;8.38;;;4.25;;
53718;SDS011;39616;48.872;9.390;2023-02-28T04:26:45;7.22;;;4.38;;
53718;SDS011;39616;48.872;9.390;2023-02-28T04:29:24;6.63;;;3.83;;
53718;SDS011;39616;48.872;9.390;2023-02-28T04:31:56;6.25;;;3.58;;
53718;SDS011;39616;48.872;9.390;2023-02-28T04:34:30;5.90;;;3.28;;
53718;SDS011;39616;48.872;9.390;2023-02-28T04:37:01;7.15;;;3.38;;
53718;SDS011;39616;48.872;9.390;2023-02-28T04:39:35;5.18;;;3.50;;
53718;SDS011;39616;48.872;9.390;2023-02-28T04:42:06;6.82;;;3.33;;
53718;SDS011;39616;48.872;9.390;2023-02-28T04:44:37;5.20;;;3.83;;
53718;SDS011;39616;48.872;9.390;2023-02-28T04:47:07;8.63;;;4.18;;
53718;SDS011;39616;48.872;9.390;2023-02-28T04:49:37;8.23;;;4.68;;
53718;SDS011;39616;48.872;9.390;2023-02-28T04:52:08;9.73;;;4.95;;
53718;SDS011;39616;48.872;9.390;2023-02-28T04:54:40;10.20;;;4.35;;
53718;SDS011;39616;48.872;9.390;2023-02-28T04:57:10;9.45;;;4.32;;
53718;SDS011;39616;48.872;9.390;2023-02-28T04:59:40;6.68;;;4.32;;
53718;SDS011;39616;48.872;9.390;2023-02-28T05:02:10;8.77;;;4.93;;
53718;SDS011;39616;48.872;9.390;2023-02-28T05:04:41;6.68;;;4.13;;
53718;SDS011;39616;48.872;9.390;2023-02-28T05:07:12;6.90;;;4.35;;
53718;SDS011;39616;48.872;9.390;2023-02-28T05:09:42;11.80;;;5.28;;
53718;SDS011;39616;48.872;9.390;2023-02-28T05:12:12;8.40;;;4.63;;
53718;SDS011;39616;48.872;9.390;2023-02-28T05:14:42;8.15;;;4.47;;
53718;SDS011;39616;48.872;9.390;2023-02-28T05:17:14;10.63;;;5.10;;
53718;SDS011;39616;48.872;9.390;2023-02-28T05:19:44;7.18;;;4.28;;
53718;SDS011;39616;48.872;9.390;2023-02-28T05:22:14;7.25;;;4.38;;
53718;SDS011;39616;48.872;9.390;2023-02-28T05:24:48;11.45;;;5.93;;
53718;SDS011;39616;48.872;9.390;2023-02-28T05:27:18;9.18;;;4.72;;
53718;SDS011;39616;48.872;9.390;2023-02-28T05:29:49;10.02;;;4.50;;
53718;SDS011;39616;48.872;9.390;2023-02-28T05:32:19;9.52;;;5.57;;
53718;SDS011;39616;48.872;9.390;2023-02-28T05:34:49;7.38;;;4.70;;
53718;SDS011;39616;48.872;9.390;2023-02-28T05:37:20;8.70;;;4.53;;
53718;SDS011;39616;48.872;9.390;2023-02-28T05:39:50;8.57;;;4.47;;
53718;SDS011;39616;48.872;9.390;2023-02-28T05:42:21;11.90;;;5.07;;
53718;SDS011;39616;48.872;9.390;2023-02-28T05:44:51;6.70;;;4.18;;
53718;SDS011;39616;48.872;9.390;2023-02-28T05:47:21;7.15;;;4.40;;
53718;SDS011;39616;48.872;9.390;2023-02-28T05:49:52;10.20;;;4.90;;
53718;SDS011;39616;48.872;9.390;2023-02-28T05:52:22;7.60;;;4.63;;
53718;SDS011;39616;48.872;9.390;2023-02-28T05:54:53;6.05;;;4.65;;
53718;SDS011;39616;48.872;9.390;2023-02-28T05:57:23;7.13;;;4.57;;
53718;SDS011;39616;48.872;9.390;2023-02-28T05:59:54;10.35;;;4.93;;
53718;SDS011;39616;48.872;9.390;2023-02-28T06:02:24;9.57;;;4.45;;
53718;SDS011;39616;48.872;9.390;2023-02-28T06:04:54;8.77;;;4.80;;
53718;SDS011;39616;48.872;9.390;2023-02-28T06:07:24;9.50;;;5.25;;
53718;SDS011;39616;48.872;9.390;2023-02-28T06:09:55;9.50;;;4.60;;
53718;SDS011;39616;48.872;9.390;2023-02-28T06:12:25;11.85;;;5.20;;
53718;SDS011;39616;48.872;9.390;2023-02-28T06:14:55;10.02;;;5.15;;
53718;SDS011;39616;48.872;9.390;2023-02-28T06:17:26;12.10;;;5.35;;
53718;SDS011;39616;48.872;9.390;2023-02-28T06:19:56;9.93;;;5.20;;
53718;SDS011;39616;48.872;9.390;2023-02-28T06:22:26;9.40;;;5.53;;
53718;SDS011;39616;48.872;9.390;2023-02-28T06:24:56;6.75;;;4.13;;
53718;SDS011;39616;48.872;9.390;2023-02-28T06:27:27;9.82;;;5.35;;
53718;SDS011;39616;48.872;9.390;2023-02-28T06:29:58;12.70;;;5.30;;
53718;SDS011;39616;48.872;9.390;2023-02-28T06:32:28;9.38;;;4.80;;
53718;SDS011;39616;48.872;9.390;2023-02-28T06:34:58;9.02;;;4.50;;
53718;SDS011;39616;48.872;9.390;2023-02-28T06:37:30;9.35;;;4.88;;
53718;SDS011;39616;48.872;9.390;2023-02-28T06:40:01;11.05;;;5.25;;
53718;SDS011;39616;48.872;9.390;2023-02-28T06:42:31;11.65;;;5.95;;
53718;SDS011;39616;48.872;9.390;2023-02-28T06:45:02;8.30;;;5.07;;
53718;SDS011;39616;48.872;9.390;2023-02-28T06:47:39;9.55;;;5.28;;
53718;SDS011;39616;48.872;9.390;2023-02-28T06:50:11;13.68;;;4.90;;
53718;SDS011;39616;48.872;9.390;2023-02-28T06:52:42;11.27;;;6.07;;
53718;SDS011;39616;48.872;9.390;2023-02-28T06:55:12;14.52;;;6.85;;
53718;SDS011;39616;48.872;9.390;2023-02-28T06:57:43;10.00;;;5.78;;
53718;SDS011;39616;48.872;9.390;2023-02-28T07:00:13;13.48;;;6.25;;
53718;SDS011;39616;48.872;9.390;2023-02-28T07:02:44;8.73;;;5.78;;
53718;SDS011;39616;48.872;9.390;2023-02-28T07:05:14;17.50;;;6.90;;
53718;SDS011;39616;48.872;9.390;2023-02-28T07:07:44;14.32;;;6.60;;
53718;SDS011;39616;48.872;9.390;2023-02-28T07:10:17;15.57;;;6.18;;
53718;SDS011;39616;48.872;9.390;2023-02-28T07:12:47;14.63;;;7.43;;
53718;SDS011;39616;48.872;9.390;2023-02-28T07:15:17;18.00;;;7.70;;
53718;SDS011;39616;48.872;9.390;2023-02-28T07:17:48;16.15;;;7.38;;
53718;SDS011;39616;48.872;9.390;2023-02-28T07:20:18;13.10;;;6.10;;
53718;SDS011;39616;48.872;9.390;2023-02-28T07:22:49;13.48;;;5.80;;
53718;SDS011;39616;48.872;9.390;2023-02-28T07:25:26;11.75;;;5.57;;
53718;SDS011;39616;48.872;9.390;2023-02-28T07:27:58;12.90;;;5.72;;
53718;SDS011;39616;48.872;9.390;2023-02-28T07:30:29;12.57;;;6.15;;
53718;SDS011;39616;48.872;9.390;2023-02-28T07:32:59;8.73;;;5.78;;
53718;SDS011;39616;48.872;9.390;2023-02-28T07:35:29;12.95;;;6.53;;
53718;SDS011;39616;48.872;9.390;2023-02-28T07:38:00;11.25;;;6.03;;
53718;SDS011;39616;48.872;9.390;2023-02-28T07:40:31;14.60;;;5.78;;
53718;SDS011;39616;48.872;9.390;2023-02-28T07:43:02;10.55;;;5.50;;
53718;SDS011;39616;48.872;9.390;2023-02-28T07:45:33;14.00;;;6.05;;
53718;SDS011;39616;48.872;9.390;2023-02-28T07:48:06;11.98;;;5.70;;
53718;SDS011;39616;48.872;9.390;2023-02-28T07:50:36;10.95;;;5.80;;
53718;SDS011;39616;48.872;9.390;2023-02-28T07:53:07;12.02;;;6.07;;
53718;SDS011;39616;48.872;9.390;2023-02-28T07:55:38;10.13;;;4.90;;
53718;SDS011;39616;48.872;9.390;2023-02-28T07:58:08;9.80;;;5.68;;
53718;SDS011;39616;48.872;9.390;2023-02-28T08:00:38;10.57;;;5.43;;
53718;SDS011;39616;48.872;9.390;2023-02-28T08:03:12;11.32;;;5.90;;
53718;SDS011;39616;48.872;9.390;2023-02-28T08:05:43;10.77;;;6.43;;
53718;SDS011;39616;48.872;9.390;2023-02-28T08:08:13;11.00;;;5.72;;
53718;SDS011;39616;48.872;9.390;2023-02-28T08:10:45;10.10;;;5.82;;
53718;SDS011;39616;48.872;9.390;2023-02-28T08:13:15;12.43;;;6.07;;
53718;SDS011;39616;48.872;9.390;2023-02-28T08:15:45;11.48;;;5.82;;
53718;SDS011;39616;48.872;9.390;2023-02-28T08:18:17;10.50;;;5.68;;
53718;SDS011;39616;48.872;9.390;2023-02-28T08:20:47;10.80;;;5.70;;
53718;SDS011;39616;48.872;9.390;2023-02-28T08:23:18;12.80;;;5.80;;
53718;SDS011;39616;48.872;9.390;2023-02-28T08:25:55;11.23;;;5.60;;
53718;SDS011;39616;48.872;9.390;2023-02-28T08:28:26;11.80;;;6.22;;
53718;SDS011;39616;48.872;9.390;2023-02-28T08:30:56;11.45;;;5.93;;
53718;SDS011;39616;48.872;9.390;2023-02-28T08:33:27;12.45;;;6.40;;
53718;SDS011;39616;48.872;9.390;2023-02-28T08:35:58;11.48;;;6.20;;
53718;SDS011;39616;48.872;9.390;2023-02-28T08:38:28;12.43;;;5.53;;
53718;SDS011;39616;48.872;9.390;2023-02-28T08:40:59;11.50;;;6.75;;
53718;SDS011;39616;48.872;9.390;2023-02-28T08:43:31;11.23;;;6.45;;
53718;SDS011;39616;48.872;9.390;2023-02-28T08:46:01;11.35;;;6.50;;
53718;SDS011;39616;48.872;9.390;2023-02-28T08:48:32;11.00;;;6.25;;
53718;SDS011;39616;48.872;9.390;2023-02-28T08:51:08;12.52;;;6.38;;
53718;SDS011;39616;48.872;9.390;2023-02-28T08:53:58;14.27;;;6.43;;
53718;SDS011;39616;48.872;9.390;2023-02-28T08:56:29;10.02;;;5.38;;
53718;SDS011;39616;48.872;9.390;2023-02-28T08:59:00;13.10;;;6.78;;
53718;SDS011;39616;48.872;9.390;2023-02-28T09:01:30;16.50;;;6.57;;
53718;SDS011;39616;48.872;9.390;2023-02-28T09:04:01;12.07;;;5.90;;
53718;SDS011;39616;48.872;9.390;2023-02-28T09:06:32;15.90;;;6.95;;
53718;SDS011;39616;48.872;9.390;2023-02-28T09:09:02;12.45;;;6.40;;
53718;SDS011;39616;48.872;9.390;2023-02-28T09:11:36;11.45;;;5.97;;
53718;SDS011;39616;48.872;9.390;2023-02-28T09:14:06;11.02;;;6.20;;
53718;SDS011;39616;48.872;9.390;2023-02-28T09:16:36;13.40;;;6.32;;
53718;SDS011;39616;48.872;9.390;2023-02-28T09:19:10;12.88;;;6.05;;
53718;SDS011;39616;48.872;9.390;2023-02-28T09:21:41;13.20;;;5.22;;
53718;SDS011;39616;48.872;9.390;2023-02-28T09:24:11;11.52;;;6.05;;
53718;SDS011;39616;48.872;9.390;2023-02-28T09:26:44;9.05;;;6.05;;
53718;SDS011;39616;48.872;9.390;2023-02-28T09:29:14;11.73;;;5.82;;
53718;SDS011;39616;48.872;9.390;2023-02-28T09:31:46;13.27;;;6.63;;
53718;SDS011;39616;48.872;9.390;2023-02-28T09:34:17;13.68;;;6.72;;
53718;SDS011;39616;48.872;9.390;2023-02-28T09:36:47;13.55;;;6.55;;
53718;SDS011;39616;48.872;9.390;2023-02-28T09:39:18;11.95;;;6.85;;
53718;SDS011;39616;48.872;9.390;2023-02-28T09:41:48;14.73;;;8.70;;
53718;SDS011;39616;48.872;9.390;2023-02-28T09:46:59;12.32;;;6.20;;
53718;SDS011;39616;48.872;9.390;2023-02-28T09:49:37;8.25;;;5.60;;
53718;SDS011;39616;48.872;9.390;2023-02-28T09:52:12;12.85;;;6.35;;
53718;SDS011;39616;48.872;9.390;2023-02-28T09:57:36;9.63;;;5.93;;
53718;SDS011;39616;48.872;9.390;2023-02-28T10:00:18;9.30;;;5.85;;
53718;SDS011;39616;48.872;9.390;2023-02-28T10:03:09;8.60;;;5.95;;
53718;SDS011;39616;48.872;9.390;2023-02-28T10:08:52;11.07;;;5.55;;
53718;SDS011;39616;48.872;9.390;2023-02-28T10:11:32;11.10;;;6.03;;
53718;SDS011;39616;48.872;9.390;2023-02-28T10:14:15;9.68;;;6.03;;
53718;SDS011;39616;48.872;9.390;2023-02-28T10:16:50;11.07;;;6.65;;
53718;SDS011;39616;48.872;9.390;2023-02-28T10:19:30;10.93;;;6.68;;
53718;SDS011;39616;48.872;9.390;2023-02-28T10:22:08;9.70;;;6.60;;
53718;SDS011;39616;48.872;9.390;2023-02-28T10:24:52;13.50;;;6.40;;
53718;SDS011;39616;48.872;9.390;2023-02-28T10:27:25;11.40;;;7.68;;
53718;SDS011;39616;48.872;9.390;2023-02-28T10:29:59;11.20;;;6.90;;
53718;SDS011;39616;48.872;9.390;2023-02-28T10:32:35;12.65;;;6.97;;
53718;SDS011;39616;48.872;9.390;2023-02-28T10:37:39;13.02;;;6.38;;
53718;SDS011;39616;48.872;9.390;2023-02-28T10:43:01;12.80;;;7.20;;
53718;SDS011;39616;48.872;9.390;2023-02-28T10:45:34;11.00;;;6.85;;
53718;SDS011;39616;48.872;9.390;2023-02-28T10:58:58;10.88;;;6.90;;
53718;SDS011;39616;48.872;9.390;2023-02-28T11:04:02;13.60;;;7.00;;
53718;SDS011;39616;48.872;9.390;2023-02-28T11:06:33;11.55;;;6.95;;
53718;SDS011;39616;48.872;9.390;2023-02-28T11:09:06;10.23;;;6.50;;
53718;SDS011;39616;48.872;9.390;2023-02-28T11:11:50;9.95;;;6.28;;
53718;SDS011;39616;48.872;9.390;2023-02-28T11:14:26;13.15;;;6.78;;
53718;SDS011;39616;48.872;9.390;2023-02-28T11:17:13;11.50;;;6.85;;
53718;SDS011;39616;48.872;9.390;2023-02-28T11:19:51;12.00;;;6.13;;
53718;SDS011;39616;48.872;9.390;2023-02-28T11:22:25;10.93;;;6.18;;
53718;SDS011;39616;48.872;9.390;2023-02-28T11:25:02;10.40;;;5.93;;
53718;SDS011;39616;48.872;9.390;2023-02-28T11:30:34;13.77;;;7.00;;
53718;SDS011;39616;48.872;9.390;2023-02-28T11:36:07;10.25;;;6.40;;
53718;SDS011;39616;48.872;9.390;2023-02-28T11:38:41;25.77;;;11.55;;
53718;SDS011;39616;48.872;9.390;2023-02-28T11:41:17;9.77;;;7.05;;
53718;SDS011;39616;48.872;9.390;2023-02-28T11:46:41;12.52;;;7.25;;
53718;SDS011;39616;48.872;9.390;2023-02-28T11:49:35;11.85;;;6.30;;
53718;SDS011;39616;48.872;9.390;2023-02-28T11:55:35;10.82;;;5.72;;
53718;SDS011;39616;48.872;9.390;2023-02-28T12:04:12;8.55;;;5.07;;
53718;SDS011;39616;48.872;9.390;2023-02-28T12:09:59;10.23;;;6.05;;
53718;SDS011;39616;48.872;9.390;2023-02-28T12:12:40;7.93;;;5.30;;
53718;SDS011;39616;48.872;9.390;2023-02-28T12:20:55;10.52;;;5.95;;
53718;SDS011;39616;48.872;9.390;2023-02-28T12:26:46;10.98;;;6.25;;
53718;SDS011;39616;48.872;9.390;2023-02-28T12:32:16;10.00;;;5.88;;
53718;SDS011;39616;48.872;9.390;2023-02-28T12:34:49;7.57;;;5.75;;
53718;SDS011;39616;48.872;9.390;2023-02-28T12:37:38;9.32;;;5.15;;
53718;SDS011;39616;48.872;9.390;2023-02-28T12:40:12;10.30;;;5.85;;
53718;SDS011;39616;48.872;9.390;2023-02-28T12:42:56;13.80;;;6.60;;
53718;SDS011;39616;48.872;9.390;2023-02-28T12:48:15;7.95;;;5.03;;
53718;SDS011;39616;48.872;9.390;2023-02-28T12:50:49;12.93;;;6.38;;
53718;SDS011;39616;48.872;9.390;2023-02-28T12:53:31;8.88;;;5.43;;
53718;SDS011;39616;48.872;9.390;2023-02-28T13:11:01;6.65;;;4.93;;
53718;SDS011;39616;48.872;9.390;2023-02-28T13:13:33;8.50;;;5.28;;
53718;SDS011;39616;48.872;9.390;2023-02-28T13:16:07;9.82;;;6.15;;
53718;SDS011;39616;48.872;9.390;2023-02-28T13:21:22;7.18;;;5.35;;
53718;SDS011;39616;48.872;9.390;2023-02-28T13:39:53;11.80;;;6.50;;
53718;SDS011;39616;48.872;9.390;2023-02-28T13:42:32;10.75;;;6.20;;
53718;SDS011;39616;48.872;9.390;2023-02-28T13:48:14;11.60;;;5.60;;
53718;SDS011;39616;48.872;9.390;2023-02-28T13:58:48;8.07;;;5.43;;
53718;SDS011;39616;48.872;9.390;2023-02-28T14:01:40;10.25;;;6.43;;
53718;SDS011;39616;48.872;9.390;2023-02-28T14:04:46;12.40;;;6.38;;
53718;SDS011;39616;48.872;9.390;2023-02-28T14:07:26;9.38;;;5.72;;
53718;SDS011;39616;48.872;9.390;2023-02-28T14:10:04;11.15;;;6.07;;
53718;SDS011;39616;48.872;9.390;2023-02-28T14:15:47;11.63;;;6.30;;
53718;SDS011;39616;48.872;9.390;2023-02-28T14:29:02;10.85;;;6.43;;
53718;SDS011;39616;48.872;9.390;2023-02-28T14:31:49;11.13;;;5.65;;
53718;SDS011;39616;48.872;9.390;2023-02-28T14:37:28;10.50;;;6.38;;
53718;SDS011;39616;48.872;9.390;2023-02-28T14:40:02;12.47;;;6.23;;
53718;SDS011;39616;48.872;9.390;2023-02-28T14:42:35;11.48;;;6.15;;
53718;SDS011;39616;48.872;9.390;2023-02-28T14:45:17;8.55;;;5.60;;
53718;SDS011;39616;48.872;9.390;2023-02-28T14:47:49;10.70;;;6.63;;
53718;SDS011;39616;48.872;9.390;2023-02-28T14:50:26;10.57;;;7.50;;
53718;SDS011;39616;48.872;9.390;2023-02-28T14:53:02;9.93;;;6.35;;
53718;SDS011;39616;48.872;9.390;2023-02-28T14:55:34;9.95;;;6.03;;
53718;SDS011;39616;48.872;9.390;2023-02-28T14:58:06;12.77;;;6.75;;
53718;SDS011;39616;48.872;9.390;2023-02-28T15:00:42;8.05;;;6.00;;
53718;SDS011;39616;48.872;9.390;2023-02-28T15:03:21;11.13;;;7.20;;
53718;SDS011;39616;48.872;9.390;2023-02-28T15:05:55;12.98;;;7.00;;
53718;SDS011;39616;48.872;9.390;2023-02-28T15:08:27;11.02;;;7.03;;
53718;SDS011;39616;48.872;9.390;2023-02-28T15:11:03;10.82;;;6.82;;
53718;SDS011;39616;48.872;9.390;2023-02-28T15:13:40;11.48;;;6.53;;
53718;SDS011;39616;48.872;9.390;2023-02-28T15:16:19;11.73;;;6.45;;
53718;SDS011;39616;48.872;9.390;2023-02-28T15:19:13;15.20;;;7.13;;
53718;SDS011;39616;48.872;9.390;2023-02-28T15:21:46;12.25;;;8.02;;
53718;SDS011;39616;48.872;9.390;2023-02-28T15:27:12;15.55;;;7.93;;
53718;SDS011;39616;48.872;9.390;2023-02-28T15:29:55;11.80;;;7.95;;
53718;SDS011;39616;48.872;9.390;2023-02-28T15:32:28;11.80;;;6.72;;
53718;SDS011;39616;48.872;9.390;2023-02-28T15:35:20;10.43;;;6.70;;
53718;SDS011;39616;48.872;9.390;2023-02-28T15:38:00;8.90;;;5.72;;
53718;SDS011;39616;48.872;9.390;2023-02-28T15:40:36;13.35;;;7.03;;
53718;SDS011;39616;48.872;9.390;2023-02-28T15:43:15;12.32;;;8.68;;
53718;SDS011;39616;48.872;9.390;2023-02-28T15:45:48;11.68;;;7.18;;
53718;SDS011;39616;48.872;9.390;2023-02-28T15:51:08;11.10;;;6.55;;
53718;SDS011;39616;48.872;9.390;2023-02-28T15:53:48;11.38;;;7.57;;
53718;SDS011;39616;48.872;9.390;2023-02-28T15:56:28;9.63;;;6.55;;
53718;SDS011;39616;48.872;9.390;2023-02-28T15:59:01;11.05;;;5.95;;
53718;SDS011;39616;48.872;9.390;2023-02-28T16:01:37;9.50;;;6.07;;
53718;SDS011;39616;48.872;9.390;2023-02-28T16:04:15;12.52;;;6.75;;
53718;SDS011;39616;48.872;9.390;2023-02-28T16:09:29;9.90;;;6.07;;
53718;SDS011;39616;48.872;9.390;2023-02-28T16:12:01;11.00;;;6.75;;
53718;SDS011;39616;48.872;9.390;2023-02-28T16:14:33;11.05;;;6.43;;
53718;SDS011;39616;48.872;9.390;2023-02-28T16:17:13;12.63;;;8.20;;
53718;SDS011;39616;48.872;9.390;2023-02-28T16:19:50;10.65;;;6.90;;
53718;SDS011;39616;48.872;9.390;2023-02-28T16:22:20;27.48;;;13.65;;
53718;SDS011;39616;48.872;9.390;2023-02-28T16:24:51;14.82;;;7.20;;
53718;SDS011;39616;48.872;9.390;2023-02-28T16:27:26;11.50;;;6.85;;
53718;SDS011;39616;48.872;9.390;2023-02-28T16:30:01;12.85;;;7.68;;
53718;SDS011;39616;48.872;9.390;2023-02-28T16:32:33;10.98;;;6.47;;
53718;SDS011;39616;48.872;9.390;2023-02-28T16:35:05;12.60;;;7.47;;
53718;SDS011;39616;48.872;9.390;2023-02-28T16:37:40;14.60;;;7.72;;
53718;SDS011;39616;48.872;9.390;2023-02-28T16:40:15;12.98;;;6.90;;
53718;SDS011;39616;48.872;9.390;2023-02-28T16:42:47;12.18;;;7.47;;
53718;SDS011;39616;48.872;9.390;2023-02-28T16:45:22;13.20;;;7.38;;
53718;SDS011;39616;48.872;9.390;2023-02-28T16:47:55;13.45;;;7.53;;
53718;SDS011;39616;48.872;9.390;2023-02-28T16:50:30;12.88;;;8.02;;
53718;SDS011;39616;48.872;9.390;2023-02-28T16:53:02;19.38;;;6.57;;
53718;SDS011;39616;48.872;9.390;2023-02-28T16:55:32;11.93;;;6.68;;
53718;SDS011;39616;48.872;9.390;2023-02-28T16:58:04;16.27;;;7.32;;
53718;SDS011;39616;48.872;9.390;2023-02-28T17:00:34;12.30;;;7.90;;
53718;SDS011;39616;48.872;9.390;2023-02-28T17:03:05;15.05;;;8.48;;
53718;SDS011;39616;48.872;9.390;2023-02-28T17:05:38;12.93;;;7.70;;
53718;SDS011;39616;48.872;9.390;2023-02-28T17:08:09;13.95;;;8.20;;
53718;SDS011;39616;48.872;9.390;2023-02-28T17:10:40;17.50;;;8.80;;
53718;SDS011;39616;48.872;9.390;2023-02-28T17:13:11;17.25;;;9.38;;
53718;SDS011;39616;48.872;9.390;2023-02-28T17:15:41;17.55;;;9.75;;
53718;SDS011;39616;48.872;9.390;2023-02-28T17:18:15;17.80;;;9.38;;
53718;SDS011;39616;48.872;9.390;2023-02-28T17:20:51;19.40;;;10.57;;
53718;SDS011;39616;48.872;9.390;2023-02-28T17:23:21;18.20;;;9.65;;
53718;SDS011;39616;48.872;9.390;2023-02-28T17:25:51;22.48;;;11.93;;
53718;SDS011;39616;48.872;9.390;2023-02-28T17:28:25;25.50;;;12.10;;
53718;SDS011;39616;48.872;9.390;2023-02-28T17:30:55;20.08;;;10.82;;
53718;SDS011;39616;48.872;9.390;2023-02-28T17:33:25;20.45;;;10.43;;
53718;SDS011;39616;48.872;9.390;2023-02-28T17:35:55;20.20;;;10.40;;
53718;SDS011;39616;48.872;9.390;2023-02-28T17:38:26;18.65;;;10.07;;
53718;SDS011;39616;48.872;9.390;2023-02-28T17:40:57;20.25;;;10.63;;
53718;SDS011;39616;48.872;9.390;2023-02-28T17:43:27;19.23;;;8.27;;
53718;SDS011;39616;48.872;9.390;2023-02-28T17:45:58;17.70;;;9.27;;
53718;SDS011;39616;48.872;9.390;2023-02-28T17:48:28;14.15;;;7.00;;
53718;SDS011;39616;48.872;9.390;2023-02-28T17:50:59;15.50;;;7.95;;
53718;SDS011;39616;48.872;9.390;2023-02-28T17:53:29;12.38;;;7.07;;
53718;SDS011;39616;48.872;9.390;2023-02-28T17:55:59;12.18;;;7.40;;
53718;SDS011;39616;48.872;9.390;2023-02-28T17:58:30;16.60;;;9.60;;